Time;durP1;ratioP1;P1;durP2;ratioP2;P2;SDS_P1;SDS_P2;PMS_P1;PMS_P2;Temp;Humidity;BMP_temperature;BMP_pressure;BME280_temperature;BME280_humidity;BME280_pressure;Samples;Min_cycle;Max_cycle;Signal;HPM_P1;HPM_P2
2022/03/20 00:01:44;;;;;;;4.80;2.38;;;;;;;4.83;100.00;103572.00;6270412;28;20057;-72
2022/03/20 00:04:45;;;;;;;5.38;2.75;;;;;;;4.75;100.00;103571.88;6271384;28;20048;-71
2022/03/20 00:07:46;;;;;;;4.18;2.33;;;;;;;4.74;100.00;103567.53;6268037;28;20527;-71
2022/03/20 00:10:49;;;;;;;4.95;2.28;;;;;;;4.68;100.00;103567.44;6278683;28;20052;-72
2022/03/20 00:13:51;;;;;;;5.65;3.80;;;;;;;4.65;100.00;103562.16;6281724;28;20049;-72
2022/03/20 00:16:53;;;;;;;7.00;3.05;;;;;;;4.66;100.00;103556.09;6283405;28;20051;-72
2022/03/20 00:19:54;;;;;;;5.57;2.83;;;;;;;4.63;100.00;103550.81;6295544;28;20048;-72
2022/03/20 00:22:57;;;;;;;4.82;2.80;;;;;;;4.61;100.00;103546.47;6284089;28;20045;-72
2022/03/20 00:25:58;;;;;;;7.93;3.15;;;;;;;4.60;100.00;103548.19;6295863;28;20051;-71
2022/03/20 00:29:01;;;;;;;5.53;3.05;;;;;;;4.56;100.00;103539.44;6284138;28;20048;-72
2022/03/20 00:32:03;;;;;;;5.93;3.55;;;;;;;4.57;100.00;103537.72;6286795;28;20496;-72
2022/03/20 00:35:05;;;;;;;6.88;3.00;;;;;;;4.42;100.00;103533.13;6295713;28;20053;-72
2022/03/20 00:38:08;;;;;;;12.18;3.63;;;;;;;4.47;100.00;103533.22;6295755;28;20045;-72
2022/03/20 00:41:09;;;;;;;6.22;2.65;;;;;;;4.48;100.00;103524.53;6294781;28;20431;-72
2022/03/20 00:44:12;;;;;;;7.38;3.78;;;;;;;4.45;99.94;103522.78;6295572;28;20055;-72
2022/03/20 00:47:14;;;;;;;6.95;3.15;;;;;;;4.44;99.57;103521.00;6295558;28;20052;-72
2022/03/20 00:50:15;;;;;;;13.02;3.65;;;;;;;4.43;99.28;103514.06;6295095;28;20422;-72
2022/03/20 00:53:17;;;;;;;6.32;3.78;;;;;;;4.33;98.41;103506.94;6295336;28;20500;-72
2022/03/20 00:56:18;;;;;;;7.30;3.00;;;;;;;4.37;97.20;103505.28;6295322;28;20645;-72
2022/03/20 00:59:21;;;;;;;5.63;3.20;;;;;;;4.30;97.14;103505.16;6295534;28;20511;-72
2022/03/20 01:02:22;;;;;;;17.40;3.75;;;;;;;4.31;97.35;103501.72;6296666;28;20049;-72
2022/03/20 01:05:24;;;;;;;9.93;4.20;;;;;;;4.30;95.58;103491.25;6299920;28;20500;-72
2022/03/20 01:08:26;;;;;;;7.78;3.83;;;;;;;4.32;95.67;103497.38;6299714;28;20416;-72
2022/03/20 01:11:27;;;;;;;11.15;3.80;;;;;;;4.24;94.59;103496.38;6299126;28;20133;-72
2022/03/20 01:14:30;;;;;;;10.18;4.72;;;;;;;4.24;93.92;103484.25;6299605;28;20063;-72
2022/03/20 01:17:31;;;;;;;8.98;3.10;;;;;;;4.19;93.76;103472.00;6299262;28;20052;-71
2022/03/20 01:20:33;;;;;;;9.60;3.47;;;;;;;4.15;93.69;103470.19;6288765;28;20052;-72
2022/03/20 01:23:34;;;;;;;12.75;4.85;;;;;;;4.07;91.65;103473.53;6288842;28;20060;-72
2022/03/20 01:26:36;;;;;;;7.35;4.40;;;;;;;4.04;92.86;103472.59;6290920;28;20149;-72
2022/03/20 01:29:39;;;;;;;6.85;4.00;;;;;;;4.05;92.78;103467.44;6299208;28;20450;-71
2022/03/20 01:32:40;;;;;;;13.05;4.30;;;;;;;4.08;91.58;103461.38;6287688;28;20055;-72
2022/03/20 01:35:41;;;;;;;20.52;4.55;;;;;;;4.11;89.94;103448.44;6274312;28;20060;-72
2022/03/20 01:38:43;;;;;;;6.00;3.88;;;;;;;4.02;90.03;103453.47;6274262;28;20052;-72
2022/03/20 01:41:46;;;;;;;16.65;5.03;;;;;;;3.99;90.75;103448.22;6276510;28;20048;-72
2022/03/20 01:44:49;;;;;;;9.13;4.22;;;;;;;3.94;88.04;103439.47;6290803;28;20077;-72
2022/03/20 01:47:52;;;;;;;10.63;4.47;;;;;;;3.90;89.21;103448.06;6298765;28;20055;-72
2022/03/20 01:50:54;;;;;;;9.30;4.57;;;;;;;3.76;88.64;103443.47;6298259;28;20052;-72
2022/03/20 01:53:55;;;;;;;13.38;4.78;;;;;;;3.67;89.51;103440.72;6298704;28;20049;-72
2022/03/20 01:56:56;;;;;;;10.77;4.15;;;;;;;3.54;89.87;103429.22;6298423;28;20049;-72
2022/03/20 01:59:59;;;;;;;7.97;4.63;;;;;;;3.61;91.69;103425.00;6298327;28;20048;-72
2022/03/20 02:03:01;;;;;;;7.70;4.32;;;;;;;3.63;91.95;103435.41;6297989;28;20055;-72
2022/03/20 02:06:05;;;;;;;10.52;4.40;;;;;;;3.61;92.05;103425.00;6291973;28;20037;-72
2022/03/20 02:09:06;;;;;;;9.05;3.67;;;;;;;3.51;91.21;103420.47;6272250;28;20041;-72
2022/03/20 02:12:08;;;;;;;9.38;4.22;;;;;;;3.45;91.91;103421.25;6287473;28;20045;-72
2022/03/20 02:15:13;;;;;;;7.95;3.97;;;;;;;3.50;92.84;103416.13;6291196;28;20052;-72
2022/03/20 02:18:15;;;;;;;7.55;3.92;;;;;;;3.49;91.46;103409.16;6289578;28;20059;-71
2022/03/20 02:21:35;;;;;;;14.85;4.97;;;;;;;3.43;90.98;103412.53;6284089;28;20048;-72
2022/03/20 02:24:40;;;;;;;9.55;4.50;;;;;;;3.41;92.01;103413.38;6284129;28;20049;-71
2022/03/20 02:27:44;;;;;;;10.38;4.35;;;;;;;3.34;92.75;103406.28;6272932;28;20055;-72
2022/03/20 02:30:46;;;;;;;7.88;3.97;;;;;;;3.31;92.15;103401.88;6272407;28;20052;-72
2022/03/20 02:33:48;;;;;;;10.98;4.75;;;;;;;3.23;91.06;103391.38;6272624;28;20393;-72
2022/03/20 02:36:51;;;;;;;10.95;4.45;;;;;;;3.31;89.79;103389.75;6271581;28;20047;-72
2022/03/20 02:39:55;;;;;;;12.82;4.95;;;;;;;3.22;90.87;103389.59;6270962;28;20049;-72
2022/03/20 02:42:58;;;;;;;12.95;4.63;;;;;;;3.24;91.45;103385.31;6270446;28;20052;-72
2022/03/20 02:46:00;;;;;;;11.13;5.05;;;;;;;3.19;90.32;103378.28;6271198;28;20484;-72
2022/03/20 02:49:02;;;;;;;9.73;5.03;;;;;;;3.25;90.60;103383.59;6272487;28;20047;-72
2022/03/20 02:52:06;;;;;;;16.10;4.72;;;;;;;3.30;89.48;103380.22;6272116;28;20056;-72
2022/03/20 02:55:08;;;;;;;8.90;4.35;;;;;;;3.19;88.82;103375.69;6272316;28;20078;-72
2022/03/20 02:58:12;;;;;;;14.13;4.65;;;;;;;3.11;89.98;103365.13;6272393;28;20045;-72
2022/03/20 03:01:13;;;;;;;15.77;4.70;;;;;;;3.11;89.87;103359.06;6271456;28;20049;-72
2022/03/20 03:04:14;;;;;;;9.48;4.70;;;;;;;3.14;88.80;103359.13;6272338;28;20052;-72
2022/03/20 03:07:17;;;;;;;12.63;4.55;;;;;;;3.08;88.83;103359.00;6272076;28;20045;-72
2022/03/20 03:13:40;;;;;;;6.95;4.03;;;;;;;3.00;88.53;103356.25;6272049;28;20420;-72
2022/03/20 03:16:41;;;;;;;11.38;5.53;;;;;;;2.98;88.28;103361.41;6271789;28;20060;-72
2022/03/20 03:19:43;;;;;;;8.88;4.30;;;;;;;2.93;88.69;103359.56;6271621;28;20408;-72
2022/03/20 03:22:46;;;;;;;8.05;4.45;;;;;;;2.94;87.21;103350.91;6271506;28;20045;-72
2022/03/20 03:25:48;;;;;;;9.82;4.20;;;;;;;2.98;88.19;103353.63;6270933;28;20044;-72
2022/03/20 03:28:49;;;;;;;7.78;4.30;;;;;;;2.93;88.23;103347.44;6271804;28;20056;-72
2022/03/20 03:31:50;;;;;;;8.15;4.20;;;;;;;2.98;87.79;103355.34;6270964;28;20052;-71
2022/03/20 03:38:14;;;;;;;12.82;5.40;;;;;;;2.77;87.81;103346.28;6271441;28;20084;-72
2022/03/20 03:41:15;;;;;;;11.88;6.35;;;;;;;2.74;86.74;103350.53;6271134;28;20569;-72
2022/03/20 03:44:17;;;;;;;9.35;4.38;;;;;;;2.79;88.21;103349.78;6271639;28;20060;-72
2022/03/20 03:47:18;;;;;;;10.85;3.65;;;;;;;2.80;88.48;103348.03;6271363;28;20049;-72
2022/03/20 03:50:20;;;;;;;11.38;5.18;;;;;;;2.77;86.45;103343.69;6270709;28;20504;-72
2022/03/20 03:53:23;;;;;;;10.98;4.95;;;;;;;2.79;84.82;103335.91;6271387;28;20048;-72
2022/03/20 03:56:24;;;;;;;11.68;5.15;;;;;;;2.77;85.44;103335.00;6271433;28;20048;-72
2022/03/20 03:59:25;;;;;;;10.13;4.93;;;;;;;2.70;86.23;103322.75;6271130;28;20044;-72
2022/03/20 04:02:27;;;;;;;8.98;4.60;;;;;;;2.63;86.24;103318.25;6270793;28;20049;-72
2022/03/20 04:05:29;;;;;;;11.48;4.47;;;;;;;2.64;85.38;103320.03;6271159;28;20075;-72
2022/03/20 04:08:34;;;;;;;11.77;5.72;;;;;;;2.68;85.05;103319.22;6271988;28;20052;-72
2022/03/20 04:11:36;;;;;;;13.23;5.07;;;;;;;2.57;84.70;103312.94;6284077;28;20076;-72
2022/03/20 04:14:37;;;;;;;8.68;4.40;;;;;;;2.57;84.96;103305.16;6265043;28;20390;-71
2022/03/20 04:17:39;;;;;;;9.57;4.15;;;;;;;2.63;83.74;103303.53;6271776;28;20049;-72
2022/03/20 04:20:40;;;;;;;10.80;4.70;;;;;;;2.58;82.44;103299.13;6278276;28;20055;-71
2022/03/20 04:23:45;;;;;;;12.27;4.90;;;;;;;2.55;82.89;103284.38;6270721;28;20420;-72
2022/03/20 04:26:47;;;;;;;12.02;5.13;;;;;;;2.59;83.59;103288.78;6270815;28;20052;-72
2022/03/20 04:29:48;;;;;;;12.48;4.85;;;;;;;2.60;80.02;103282.75;6270745;28;20049;-72
2022/03/20 04:32:50;;;;;;;12.02;5.18;;;;;;;2.56;80.66;103277.47;6270305;28;20059;-72
2022/03/20 04:35:51;;;;;;;12.93;4.88;;;;;;;2.49;82.27;103274.72;6283295;28;20045;-71
2022/03/20 04:38:55;;;;;;;10.48;5.63;;;;;;;2.55;79.88;103263.59;6299864;28;20044;-71
2022/03/20 04:41:57;;;;;;;12.57;5.70;;;;;;;2.57;78.92;103261.91;6299738;28;20045;-72
2022/03/20 04:44:58;;;;;;;13.68;5.75;;;;;;;2.60;79.04;103250.72;6300230;28;20048;-72
2022/03/20 05:01:19;;;;;;;12.15;4.28;;;;;;;2.51;75.72;103247.09;6270247;28;20049;-72
2022/03/20 05:04:21;;;;;;;18.90;5.97;;;;;;;2.48;75.94;103247.00;6275951;28;20041;-72
2022/03/20 05:07:22;;;;;;;12.50;5.90;;;;;;;2.42;75.44;103246.03;6274999;28;20492;-72
2022/03/20 05:13:44;;;;;;;15.90;6.07;;;;;;;2.37;75.41;103239.88;6274962;28;20053;-72
2022/03/20 05:16:45;;;;;;;12.07;5.82;;;;;;;2.44;75.79;103237.41;6274539;28;20053;-72
2022/03/20 05:19:46;;;;;;;10.48;5.03;;;;;;;2.35;73.94;103246.72;6274525;28;20045;-71
2022/03/20 05:22:48;;;;;;;16.58;6.25;;;;;;;2.29;73.81;103235.38;6274214;28;20057;-72
2022/03/20 05:25:51;;;;;;;15.05;5.75;;;;;;;2.40;74.88;103237.31;6274283;28;20194;-72
2022/03/20 05:28:52;;;;;;;11.82;5.47;;;;;;;2.36;73.51;103238.97;6273542;28;20427;-71
2022/03/20 05:31:54;;;;;;;13.88;5.78;;;;;;;2.47;71.76;103227.09;6270175;28;20045;-72
2022/03/20 05:34:55;;;;;;;11.48;5.55;;;;;;;2.41;72.36;103228.72;6273847;28;20049;-72
2022/03/20 05:37:57;;;;;;;8.63;4.32;;;;;;;2.45;70.99;103230.50;6274317;28;20045;-72
2022/03/20 05:44:16;;;;;;;7.80;4.18;;;;;;;2.43;71.29;103227.88;6273859;28;20094;-72
2022/03/20 05:47:17;;;;;;;16.58;5.82;;;;;;;2.44;71.53;103220.97;6273849;28;20464;-72
2022/03/20 05:50:18;;;;;;;10.55;4.30;;;;;;;2.30;72.42;103212.91;6272276;28;20045;-71
2022/03/20 05:53:20;;;;;;;16.17;6.38;;;;;;;2.26;72.51;103214.56;6273832;28;20071;-72
2022/03/20 05:59:41;;;;;;;12.43;5.75;;;;;;;2.28;72.32;103210.28;6262348;28;20049;-72
2022/03/20 06:02:43;;;;;;;19.08;5.70;;;;;;;2.34;69.43;103195.69;6273177;28;20053;-72
2022/03/20 06:05:44;;;;;;;14.45;6.18;;;;;;;2.36;69.84;103196.59;6273699;28;20053;-72
2022/03/20 06:08:46;;;;;;;12.45;5.78;;;;;;;2.44;69.88;103185.50;6267856;28;20059;-72
2022/03/20 06:11:48;;;;;;;11.02;4.93;;;;;;;2.36;69.76;103188.78;6282037;28;20492;-71
2022/03/20 06:14:50;;;;;;;15.82;6.38;;;;;;;2.37;69.98;103187.97;6285473;28;20044;-71
2022/03/20 06:17:51;;;;;;;14.63;5.25;;;;;;;2.36;69.93;103188.78;6291355;28;20048;-72
2022/03/20 06:20:53;;;;;;;13.05;5.82;;;;;;;2.27;70.37;103195.56;6272545;28;20385;-72
2022/03/20 06:23:55;;;;;;;16.52;6.20;;;;;;;2.35;69.21;103193.13;6277729;28;20041;-72
2022/03/20 06:26:57;;;;;;;16.88;5.68;;;;;;;2.47;68.38;103183.00;6281049;28;20496;-72
2022/03/20 06:29:58;;;;;;;10.57;4.78;;;;;;;2.41;68.23;103195.84;6272927;28;20044;-72
2022/03/20 06:33:02;;;;;;;11.65;4.95;;;;;;;2.36;68.33;103186.19;6272536;28;20418;-72
2022/03/20 06:36:03;;;;;;;14.55;6.22;;;;;;;2.42;67.93;103188.94;6280873;28;20049;-72
2022/03/20 06:39:05;;;;;;;14.05;6.63;;;;;;;2.39;68.79;103189.75;6272813;28;20052;-72
2022/03/20 06:42:08;;;;;;;11.88;5.65;;;;;;;2.38;68.26;103200.09;6272082;28;20084;-72
2022/03/20 06:45:11;;;;;;;13.70;6.15;;;;;;;2.32;68.78;103219.03;6272923;28;20060;-72
2022/03/20 06:48:13;;;;;;;11.38;5.65;;;;;;;2.21;68.18;103217.91;6272399;28;20049;-72
2022/03/20 06:51:15;;;;;;;17.83;6.60;;;;;;;2.36;66.20;103207.81;6272135;28;20557;-72
2022/03/20 06:54:16;;;;;;;14.50;5.53;;;;;;;2.30;66.73;103205.13;6272370;28;20110;-72
2022/03/20 06:57:20;;;;;;;17.48;5.93;;;;;;;2.35;67.44;103216.47;6280731;28;20047;-72
2022/03/20 07:00:21;;;;;;;14.18;5.63;;;;;;;2.38;67.42;103211.34;6247159;28;20045;-71
2022/03/20 07:03:22;;;;;;;9.07;4.47;;;;;;;2.45;66.93;103212.34;6247797;28;20056;-71
2022/03/20 07:06:26;;;;;;;19.25;6.18;;;;;;;2.52;66.41;103219.41;6247552;28;20073;-72
2022/03/20 07:09:28;;;;;;;12.00;5.40;;;;;;;2.45;66.49;103234.00;6247634;28;20058;-71
2022/03/20 07:12:30;;;;;;;20.25;7.65;;;;;;;2.47;66.21;103226.22;6246795;28;20045;-71
2022/03/20 07:15:32;;;;;;;11.98;4.75;;;;;;;2.62;64.32;103229.13;6247196;28;20049;-72
2022/03/20 07:18:33;;;;;;;15.73;5.28;;;;;;;2.61;63.81;103229.97;6246984;28;20452;-72
2022/03/20 07:21:35;;;;;;;12.30;5.30;;;;;;;2.65;65.69;103220.53;6275157;28;20054;-72
2022/03/20 07:24:37;;;;;;;13.98;6.05;;;;;;;2.72;65.53;103218.06;6280093;28;20052;-72
2022/03/20 07:30:59;;;;;;;13.55;5.95;;;;;;;2.76;65.04;103211.22;6279201;28;20053;-72
2022/03/20 07:34:00;;;;;;;13.68;6.00;;;;;;;2.78;63.78;103207.81;6271529;28;20128;-72
2022/03/20 07:37:03;;;;;;;13.30;5.35;;;;;;;2.79;63.17;103201.75;6271746;28;20049;-71
2022/03/20 07:40:06;;;;;;;15.00;5.57;;;;;;;2.95;62.07;103199.44;6279394;28;20503;-71
2022/03/20 07:43:09;;;;;;;12.80;5.20;;;;;;;3.01;63.44;103192.63;6270917;28;20045;-72
2022/03/20 07:46:11;;;;;;;14.23;6.07;;;;;;;3.05;62.56;103183.19;6271413;28;20056;-72
2022/03/20 07:49:13;;;;;;;17.45;5.57;;;;;;;3.11;62.12;103185.00;6271623;28;20131;-72
2022/03/20 07:52:15;;;;;;;14.52;5.90;;;;;;;3.20;63.73;103175.63;6270820;28;20044;-72
2022/03/20 07:55:17;;;;;;;12.48;5.40;;;;;;;3.31;62.24;103168.88;6271588;28;20053;-72
2022/03/20 07:58:20;;;;;;;22.63;6.35;;;;;;;3.40;62.18;103177.66;6271178;28;20049;-72
2022/03/20 08:01:22;;;;;;;17.88;6.57;;;;;;;3.38;61.29;103169.84;6270313;28;20045;-72
2022/03/20 08:04:24;;;;;;;17.67;5.78;;;;;;;3.45;61.95;103170.81;6271439;28;20394;-72
2022/03/20 08:07:25;;;;;;;16.95;7.18;;;;;;;3.55;62.18;103168.41;6287567;28;20056;-72
2022/03/20 08:10:27;;;;;;;11.70;5.63;;;;;;;3.63;61.34;103165.00;6262623;28;20053;-72
2022/03/20 08:13:31;;;;;;;17.85;5.70;;;;;;;3.70;61.74;103164.25;6282317;28;20049;-72
2022/03/20 08:16:34;;;;;;;12.82;6.03;;;;;;;3.80;61.51;103168.72;6276124;28;20076;-72
2022/03/20 08:19:36;;;;;;;15.60;6.53;;;;;;;3.86;60.53;103158.44;6278048;28;20083;-72
2022/03/20 08:22:37;;;;;;;16.73;6.35;;;;;;;3.96;59.72;103149.88;6291755;28;20071;-72
2022/03/20 08:25:39;;;;;;;20.30;6.85;;;;;;;4.01;60.43;103150.81;6300754;28;20044;-72
2022/03/20 08:28:44;;;;;;;11.82;6.43;;;;;;;4.08;62.84;103157.81;6300846;28;20048;-71
2022/03/20 08:31:47;;;;;;;14.93;6.88;;;;;;;4.19;60.63;103159.72;6299989;28;20054;-71
2022/03/20 08:34:49;;;;;;;17.88;6.57;;;;;;;4.33;58.13;103138.19;6300528;28;20053;-72
2022/03/20 08:37:53;;;;;;;11.63;5.80;;;;;;;4.46;59.97;103135.72;6300528;28;20369;-72
2022/03/20 08:40:54;;;;;;;16.10;7.22;;;;;;;4.52;58.78;103131.44;6299645;28;20135;-72
2022/03/20 08:43:57;;;;;;;12.77;5.93;;;;;;;4.64;58.46;103119.41;6300000;28;20049;-72
2022/03/20 08:46:59;;;;;;;14.75;6.57;;;;;;;4.72;60.61;103125.53;6269622;28;20052;-72
2022/03/20 08:50:00;;;;;;;16.77;6.35;;;;;;;4.75;59.16;103123.84;6274252;28;20051;-72
2022/03/20 08:53:01;;;;;;;17.27;6.80;;;;;;;4.89;57.22;103121.34;6273091;28;20071;-73
2022/03/20 08:56:03;;;;;;;15.57;7.30;;;;;;;5.03;57.26;103118.84;6270605;28;20044;-72
2022/03/20 08:59:07;;;;;;;16.00;6.55;;;;;;;5.08;57.61;103104.13;6272376;28;20052;-72
2022/03/20 09:02:08;;;;;;;16.30;7.15;;;;;;;5.13;57.02;103104.16;6272678;28;20049;-72
2022/03/20 09:05:11;;;;;;;15.07;6.93;;;;;;;5.18;55.97;103090.31;6275014;28;20389;-72
2022/03/20 09:08:13;;;;;;;14.55;6.07;;;;;;;5.34;57.08;103086.06;6275214;28;20484;-72
2022/03/20 09:11:14;;;;;;;13.93;6.60;;;;;;;5.46;57.47;103072.25;6274250;28;20053;-72
2022/03/20 09:14:17;;;;;;;12.43;6.18;;;;;;;5.54;56.18;103071.41;6274715;28;20566;-72
2022/03/20 09:20:39;;;;;;;17.20;7.50;;;;;;;5.77;53.95;103062.81;6273909;28;20487;-72
2022/03/20 09:23:41;;;;;;;19.17;6.47;;;;;;;5.79;55.05;103072.38;6274754;28;20049;-72
2022/03/20 09:26:42;;;;;;;14.80;6.28;;;;;;;5.93;53.64;103069.00;6274389;28;20052;-71
2022/03/20 09:29:45;;;;;;;13.88;6.70;;;;;;;5.97;53.98;103066.41;6274481;28;20044;-72
2022/03/20 09:32:46;;;;;;;17.05;7.03;;;;;;;6.01;55.21;103062.94;6273892;28;20049;-73
2022/03/20 09:35:48;;;;;;;18.70;6.40;;;;;;;6.16;53.50;103061.22;6274388;28;20049;-72
2022/03/20 09:38:49;;;;;;;17.60;7.13;;;;;;;6.16;54.78;103054.25;6274163;28;20061;-72
2022/03/20 09:41:52;;;;;;;15.55;6.40;;;;;;;6.31;53.71;103061.25;6273753;28;20053;-72
2022/03/20 09:44:55;;;;;;;14.88;6.13;;;;;;;6.44;51.45;103047.31;6274135;28;20052;-72
2022/03/20 09:47:57;;;;;;;18.45;6.43;;;;;;;6.51;52.00;103046.47;6274227;28;20412;-72
2022/03/20 09:51:00;;;;;;;18.88;6.47;;;;;;;6.75;50.76;103037.75;6273435;28;20053;-72
2022/03/20 09:54:01;;;;;;;22.45;7.18;;;;;;;6.91;50.08;103027.31;6274048;28;20183;-72
2022/03/20 09:57:05;;;;;;;18.42;7.25;;;;;;;6.93;48.58;103026.41;6273853;28;20056;-72
2022/03/20 10:00:12;;;;;;;20.17;6.45;;;;;;;6.91;50.04;103036.03;6273352;28;20110;-72
2022/03/20 10:03:15;;;;;;;14.70;5.68;;;;;;;6.97;50.72;103022.94;6273521;28;20098;-71
2022/03/20 10:06:17;;;;;;;14.77;6.53;;;;;;;7.15;49.60;103008.94;6272516;28;20040;-72
2022/03/20 10:09:18;;;;;;;15.40;6.45;;;;;;;7.23;48.45;103003.72;6271369;28;20080;-72
2022/03/20 10:12:31;;;;;;;14.57;6.45;;;;;;;7.28;48.99;103005.44;6273126;28;20048;-72
2022/03/20 10:15:35;;;;;;;17.25;7.30;;;;;;;7.40;47.81;102994.03;6276700;28;20049;-72
2022/03/20 10:18:39;;;;;;;13.13;5.95;;;;;;;7.43;49.47;102999.25;6272922;28;20511;-72
2022/03/20 10:21:45;;;;;;;20.95;6.45;;;;;;;7.58;46.77;102980.88;6272619;28;20131;-71
2022/03/20 10:24:49;;;;;;;18.10;6.45;;;;;;;7.68;47.87;102983.47;6249924;28;20049;-71
2022/03/20 10:27:58;;;;;;;15.30;6.47;;;;;;;7.73;47.46;102959.00;6248278;28;20108;-71
2022/03/20 10:31:03;;;;;;;17.88;7.05;;;;;;;7.84;47.76;102961.53;6250510;28;20488;-71
2022/03/20 10:34:07;;;;;;;16.88;6.28;;;;;;;8.03;47.88;102950.06;6271901;28;20133;-71
2022/03/20 10:37:09;;;;;;;16.25;6.72;;;;;;;8.19;47.91;102957.81;6271259;28;20054;-72
2022/03/20 10:40:11;;;;;;;14.57;5.35;;;;;;;8.44;46.08;102938.41;6263915;28;20047;-72
2022/03/20 10:43:15;;;;;;;14.30;5.43;;;;;;;8.62;45.50;102937.34;6265204;28;20049;-71
2022/03/20 10:46:23;;;;;;;11.68;4.90;;;;;;;8.81;41.77;102936.31;6272927;28;20048;-72
2022/03/20 10:49:25;;;;;;;10.20;5.10;;;;;;;8.86;42.83;102917.91;6272562;28;20044;-72
2022/03/20 10:52:29;;;;;;;11.35;5.03;;;;;;;8.86;43.57;102937.13;6272185;28;20052;-72
2022/03/20 10:55:31;;;;;;;11.90;6.25;;;;;;;9.02;42.55;102929.94;6272471;28;20045;-72
2022/03/20 10:58:37;;;;;;;20.80;5.60;;;;;;;9.10;40.18;102917.59;6272561;28;20049;-72
2022/03/20 11:01:41;;;;;;;14.88;5.72;;;;;;;9.27;39.71;102914.78;6272172;28;20048;-72
2022/03/20 11:04:44;;;;;;;16.15;6.57;;;;;;;9.42;39.22;102912.84;6272268;28;20056;-72
2022/03/20 11:07:45;;;;;;;11.50;5.18;;;;;;;9.37;40.40;102912.91;6272285;28;20520;-73
2022/03/20 11:10:49;;;;;;;11.98;5.85;;;;;;;9.47;39.32;102916.25;6271363;28;20048;-73
2022/03/20 11:13:53;;;;;;;13.43;6.15;;;;;;;9.70;39.38;102901.03;6268192;28;20191;-73
2022/03/20 11:17:00;;;;;;;10.93;5.35;;;;;;;9.81;39.67;102916.63;6266451;28;20044;-72
2022/03/20 11:20:03;;;;;;;13.02;5.65;;;;;;;9.89;37.71;102899.00;6266778;28;20111;-73
2022/03/20 11:23:05;;;;;;;11.85;4.85;;;;;;;9.93;37.97;102892.81;6263559;28;20465;-72
2022/03/20 11:26:10;;;;;;;10.35;5.15;;;;;;;10.12;36.69;102896.84;6265351;28;20045;-72
2022/03/20 11:29:13;;;;;;;12.25;5.25;;;;;;;10.25;37.64;102884.41;6265471;28;20052;-72
2022/03/20 11:32:17;;;;;;;10.95;5.30;;;;;;;10.48;38.55;102878.72;6270780;28;20045;-72
2022/03/20 11:35:25;;;;;;;10.85;5.32;;;;;;;10.60;37.09;102886.41;6266676;28;20049;-72
2022/03/20 11:38:26;;;;;;;10.20;5.30;;;;;;;10.66;36.79;102881.00;6263893;28;20051;-73
2022/03/20 11:41:28;;;;;;;9.98;5.38;;;;;;;10.79;35.64;102872.88;6270526;28;20428;-72
2022/03/20 11:44:29;;;;;;;10.68;5.47;;;;;;;10.84;35.45;102881.53;6271556;28;20492;-73
2022/03/20 11:47:33;;;;;;;11.65;5.60;;;;;;;10.91;35.13;102859.50;6265942;28;20056;-73
2022/03/20 11:50:42;;;;;;;10.68;5.72;;;;;;;10.96;37.74;102840.97;6270368;28;20049;-73
2022/03/20 11:53:43;;;;;;;15.82;6.25;;;;;;;11.41;35.98;102857.53;6272829;28;20131;-78
2022/03/20 11:56:44;;;;;;;12.13;5.43;;;;;;;11.92;35.39;102836.97;6269789;28;20041;-80
2022/03/20 11:59:48;;;;;;;14.38;6.00;;;;;;;12.21;33.70;102848.53;6271805;28;20052;-78
2022/03/20 12:03:08;;;;;;;11.40;5.90;;;;;;;12.53;35.21;102844.16;6271514;28;20049;-79
2022/03/20 12:06:45;;;;;;;12.02;5.38;;;;;;;12.63;34.61;102850.94;6269973;28;20045;-80
2022/03/20 12:10:11;;;;;;;13.68;5.88;;;;;;;12.84;31.79;102847.66;6246806;28;20044;-79
2022/03/20 12:13:24;;;;;;;13.98;6.20;;;;;;;12.86;33.23;102830.00;6279872;28;20044;-82
2022/03/20 12:16:52;;;;;;;12.88;6.30;;;;;;;12.95;33.96;102821.81;6272636;28;20067;-79
2022/03/20 12:19:55;;;;;;;13.48;5.85;;;;;;;13.16;32.10;102832.63;6273568;28;20142;-80
2022/03/20 12:23:32;;;;;;;13.50;5.43;;;;;;;13.31;33.40;102836.63;6280372;28;20045;-80
2022/03/20 12:26:36;;;;;;;12.48;6.03;;;;;;;13.44;32.71;102832.66;6270574;28;20054;-79
2022/03/20 12:29:38;;;;;;;10.65;5.90;;;;;;;13.47;33.16;102850.19;6269679;28;20122;-79
2022/03/20 12:32:52;;;;;;;12.18;5.93;;;;;;;13.64;31.77;102853.16;6282157;28;20418;-80
2022/03/20 12:35:55;;;;;;;13.73;6.40;;;;;;;13.72;33.34;102843.22;6296906;28;20048;-80
2022/03/20 12:38:57;;;;;;;12.65;6.00;;;;;;;13.93;33.41;102842.47;6297312;28;20492;-79
2022/03/20 12:41:58;;;;;;;12.80;5.70;;;;;;;13.88;32.47;102819.78;6282850;28;20052;-79
2022/03/20 12:45:00;;;;;;;14.95;6.13;;;;;;;13.87;32.69;102821.56;6267015;28;20075;-78
2022/03/20 12:48:03;;;;;;;14.10;6.43;;;;;;;14.12;33.39;102808.34;6272346;28;20393;-79
2022/03/20 12:51:11;;;;;;;11.07;5.43;;;;;;;14.30;31.84;102805.97;6271545;28;20049;-80
2022/03/20 12:54:15;;;;;;;11.40;5.55;;;;;;;14.27;30.51;102820.19;6279296;28;20040;-79
2022/03/20 12:57:16;;;;;;;7.97;5.07;;;;;;;14.26;31.13;102801.69;6288877;28;20052;-80
2022/03/20 13:00:20;;;;;;;11.63;5.25;;;;;;;14.45;31.20;102794.84;6287240;28;20048;-79
2022/03/20 13:03:22;;;;;;;11.80;5.68;;;;;;;14.42;29.48;102808.16;6275970;28;20049;-79
2022/03/20 13:06:29;;;;;;;12.20;5.70;;;;;;;14.55;29.83;102811.25;6275738;28;20045;-79
2022/03/20 13:09:30;;;;;;;12.98;5.20;;;;;;;14.60;29.11;102812.81;6272877;28;20045;-79
2022/03/20 13:12:49;;;;;;;13.20;5.90;;;;;;;14.61;29.43;102803.94;6274758;28;20060;-80
2022/03/20 13:15:51;;;;;;;13.80;5.28;;;;;;;14.63;29.76;102819.78;6273715;28;20049;-79
2022/03/20 13:18:52;;;;;;;9.57;5.13;;;;;;;14.74;29.22;102791.13;6275959;28;20045;-80
2022/03/20 13:21:55;;;;;;;14.00;5.45;;;;;;;14.72;30.73;102800.91;6274963;28;20041;-80
2022/03/20 13:24:57;;;;;;;7.70;4.63;;;;;;;14.80;29.46;102792.66;6275100;28;20045;-79
2022/03/20 13:27:58;;;;;;;11.95;5.15;;;;;;;14.91;29.90;102777.25;6274761;28;20447;-79
2022/03/20 13:31:02;;;;;;;10.23;5.30;;;;;;;15.04;28.85;102773.19;6273780;28;20045;-79
2022/03/20 13:34:03;;;;;;;15.27;5.80;;;;;;;15.12;29.39;102759.63;6274169;28;20047;-80
2022/03/20 13:37:08;;;;;;;9.68;5.13;;;;;;;15.21;29.80;102759.25;6274783;28;20048;-79
2022/03/20 13:40:10;;;;;;;10.38;5.60;;;;;;;15.25;28.15;102755.56;6271932;28;20037;-80
2022/03/20 13:43:12;;;;;;;14.07;5.88;;;;;;;15.03;30.16;102739.66;6274484;28;20045;-79
2022/03/20 13:46:17;;;;;;;11.35;5.28;;;;;;;15.06;28.87;102742.22;6274281;28;20048;-79
2022/03/20 13:49:19;;;;;;;12.30;5.28;;;;;;;15.04;28.55;102728.19;6274100;28;20041;-79
2022/03/20 13:52:26;;;;;;;11.57;5.82;;;;;;;15.02;28.78;102729.16;6273664;28;20045;-79
2022/03/20 13:55:37;;;;;;;11.88;5.50;;;;;;;14.80;29.70;102726.50;6274521;28;20052;-79
2022/03/20 13:59:00;;;;;;;14.20;4.80;;;;;;;14.78;28.80;102712.47;6272413;28;20632;-79
2022/03/20 14:02:03;;;;;;;9.65;5.05;;;;;;;14.98;28.87;102704.56;6271795;28;20041;-80
2022/03/20 14:05:10;;;;;;;9.95;5.28;;;;;;;15.03;28.80;102702.59;6274255;28;20049;-80
2022/03/20 14:08:15;;;;;;;9.05;4.85;;;;;;;14.95;28.14;102710.88;6274995;28;20048;-79
2022/03/20 14:11:32;;;;;;;13.75;4.75;;;;;;;15.01;30.12;102711.53;6270927;28;20404;-79
2022/03/20 14:14:44;;;;;;;10.40;4.88;;;;;;;15.25;29.59;102705.22;6269880;28;20045;-79
2022/03/20 14:17:50;;;;;;;10.05;5.57;;;;;;;15.29;28.82;102708.63;6273208;28;20147;-79
2022/03/20 14:21:10;;;;;;;9.77;4.85;;;;;;;15.47;28.16;102708.72;6273447;28;20055;-79
2022/03/20 14:24:14;;;;;;;9.52;4.97;;;;;;;15.19;29.06;102724.03;6275689;28;20508;-80
2022/03/20 14:27:15;;;;;;;8.88;5.40;;;;;;;15.21;28.07;102716.88;6270307;28;20409;-80
2022/03/20 14:40:45;;;;;;;9.35;4.80;;;;;;;14.95;28.46;102716.16;6274076;28;20045;-81
2022/03/20 14:44:07;;;;;;;10.30;5.40;;;;;;;15.04;28.68;102703.50;6275924;28;20055;-81
2022/03/20 14:47:08;;;;;;;13.50;5.32;;;;;;;14.79;28.35;102707.09;6272869;28;20531;-82
2022/03/20 14:50:10;;;;;;;10.20;5.00;;;;;;;14.69;30.19;102708.41;6272882;28;20048;-80
2022/03/20 14:53:21;;;;;;;10.82;4.75;;;;;;;14.68;30.36;102710.19;6284697;28;20072;-82
2022/03/20 14:56:23;;;;;;;7.93;4.55;;;;;;;14.49;28.94;102701.25;6272661;28;20055;-82
2022/03/20 14:59:25;;;;;;;12.70;5.57;;;;;;;14.33;30.01;102708.00;6278364;28;20416;-81